Livingston, Montana
Current Conditions -  °F | °C
As of 1:53 AM on Monday 24 Nov 2014 (Local Time) from KLVM Reporting Station
Overcast Overcast  
Wind Chill: 25°   Ceiling: 8500
Heat Index: 35°   Visibility: 10mi
Dew Point: 18°   Wind: 17mph
Humidity: 50%   Direction: 260°W
Pressure: 29.88"   Gusts: 30mph
Location:  45.66°N, 110.56°W
Report Text: KLVM 240853Z AUTO 26015G26KT 10SM FEW070 OVC085 02/M08 A2988 RMK AO2 PK WND 27026/0846 SLP133 60000 T00171078 53011
Loading
Personal Weather Stations






























Interactive Weather Map New forecast layout! Learn more

10-Day Weather Forecast

Advertisements
Track Severe Weather on mobile